createdAt,value
2019-04-30T00:02:19.457Z,5.80
2019-04-30T00:04:50.219Z,5.83
2019-04-30T00:07:20.366Z,7.50
2019-04-30T00:09:54.004Z,8.13
2019-04-30T00:12:22.701Z,5.10
2019-04-30T00:14:52.558Z,4.60
2019-04-30T00:17:22.395Z,5.20
2019-04-30T00:19:58.228Z,5.73
2019-04-30T00:22:33.057Z,4.93
2019-04-30T00:24:55.866Z,4.50
2019-04-30T00:27:30.022Z,4.67
2019-04-30T00:30:00.320Z,4.23
2019-04-30T00:32:30.521Z,4.60
2019-04-30T00:35:00.879Z,4.17
2019-04-30T00:37:30.827Z,7.00
2019-04-30T00:40:00.669Z,5.40
2019-04-30T00:42:30.587Z,4.07
2019-04-30T00:45:06.721Z,4.50
2019-04-30T00:47:32.778Z,4.90
2019-04-30T00:50:02.719Z,5.80
2019-04-30T00:52:33.977Z,4.03
2019-04-30T00:55:06.688Z,5.73
2019-04-30T00:57:37.261Z,8.63
2019-04-30T01:00:09.234Z,7.90
2019-04-30T01:02:46.159Z,5.47
2019-04-30T01:05:17.317Z,4.00
2019-04-30T01:07:50.248Z,4.53
2019-04-30T01:10:19.552Z,5.17
2019-04-30T01:12:50.635Z,4.53
2019-04-30T01:15:20.799Z,7.03
2019-04-30T01:17:53.769Z,4.07
2019-04-30T01:20:29.091Z,4.77
2019-04-30T01:22:58.559Z,6.63
2019-04-30T01:25:28.926Z,4.50
2019-04-30T01:27:59.047Z,4.40
2019-04-30T01:30:30.402Z,5.67
2019-04-30T01:33:01.109Z,4.73
2019-04-30T01:35:32.660Z,5.23
2019-04-30T01:38:04.095Z,4.83
2019-04-30T01:40:35.447Z,5.70
2019-04-30T01:43:05.349Z,6.00
2019-04-30T01:45:38.756Z,6.90
2019-04-30T01:48:12.549Z,4.43
2019-04-30T01:50:42.169Z,5.67
2019-04-30T01:53:13.368Z,5.50
2019-04-30T01:56:19.206Z,8.17
2019-04-30T01:59:01.338Z,4.60
2019-04-30T02:01:32.063Z,5.13
2019-04-30T02:04:02.139Z,4.70
2019-04-30T02:06:32.680Z,5.63
2019-04-30T02:09:02.746Z,5.80
2019-04-30T02:11:33.355Z,6.50
2019-04-30T02:14:03.434Z,6.80
2019-04-30T02:16:33.500Z,6.93
2019-04-30T02:19:03.831Z,5.60
2019-04-30T02:21:34.155Z,7.83
2019-04-30T02:24:04.029Z,6.77
2019-04-30T02:26:34.010Z,6.90
2019-04-30T02:29:04.026Z,6.13
2019-04-30T02:31:34.612Z,6.20
2019-04-30T02:34:14.763Z,6.70
2019-04-30T02:37:03.802Z,6.40
2019-04-30T02:39:33.606Z,6.73
2019-04-30T02:42:04.395Z,6.77
2019-04-30T02:44:36.458Z,6.37
2019-04-30T02:47:10.163Z,7.37
2019-04-30T02:49:42.881Z,7.10
2019-04-30T02:52:14.858Z,6.87
2019-04-30T02:54:49.972Z,7.27
2019-04-30T02:57:23.127Z,8.10
2019-04-30T03:00:25.251Z,7.63
2019-04-30T03:02:55.593Z,7.97
2019-04-30T03:05:25.646Z,6.63
2019-04-30T03:07:55.922Z,7.30
2019-04-30T03:10:26.335Z,6.67
2019-04-30T03:12:56.111Z,7.20
2019-04-30T03:15:26.395Z,9.70
2019-04-30T03:18:22.981Z,6.70
2019-04-30T03:21:00.035Z,7.53
2019-04-30T03:23:30.254Z,6.10
2019-04-30T03:26:00.670Z,7.57
2019-04-30T03:28:31.139Z,7.40
2019-04-30T03:31:04.233Z,5.13
2019-04-30T03:33:33.656Z,6.57
2019-04-30T03:36:04.070Z,6.30
2019-04-30T03:38:34.411Z,6.40
2019-04-30T03:41:04.685Z,6.60
2019-04-30T03:43:40.104Z,6.70
2019-04-30T03:46:10.260Z,7.80
2019-04-30T03:48:39.950Z,5.70
2019-04-30T03:51:10.641Z,7.10
2019-04-30T03:53:42.734Z,7.70
2019-04-30T03:56:12.109Z,8.87
2019-04-30T03:58:41.944Z,7.73
2019-04-30T04:01:30.904Z,8.00
2019-04-30T04:04:20.205Z,7.00
2019-04-30T04:06:56.686Z,7.00
2019-04-30T04:09:32.340Z,9.20
2019-04-30T04:12:21.004Z,7.03
2019-04-30T04:14:51.334Z,8.70
2019-04-30T04:17:21.578Z,7.93
2019-04-30T04:19:51.865Z,7.10
2019-04-30T04:22:21.811Z,9.93
2019-04-30T04:24:51.485Z,6.90
2019-04-30T04:27:21.173Z,7.13
2019-04-30T04:29:51.447Z,7.13
2019-04-30T04:32:24.266Z,7.10
2019-04-30T04:34:52.761Z,6.37
2019-04-30T04:37:22.493Z,6.07
2019-04-30T04:39:52.350Z,7.20
2019-04-30T04:42:22.057Z,7.87
2019-04-30T04:44:51.866Z,6.90
2019-04-30T04:47:21.589Z,7.30
2019-04-30T04:49:53.909Z,9.40
2019-04-30T04:52:22.730Z,10.13
2019-04-30T04:54:52.599Z,12.40
2019-04-30T04:57:23.119Z,9.17
2019-04-30T04:59:53.196Z,9.10
2019-04-30T05:02:32.522Z,11.57
2019-04-30T05:05:00.871Z,9.60
2019-04-30T05:07:30.646Z,11.20
2019-04-30T05:10:00.983Z,10.03
2019-04-30T05:12:30.802Z,10.20
2019-04-30T05:15:00.753Z,8.90
2019-04-30T05:17:32.079Z,12.37
2019-04-30T05:20:02.063Z,13.07
2019-04-30T05:22:31.853Z,9.90
2019-04-30T05:25:01.643Z,10.57
2019-04-30T05:27:31.485Z,9.90
2019-04-30T05:30:02.277Z,10.73
2019-04-30T05:32:32.783Z,11.40
2019-04-30T05:35:02.850Z,11.03
2019-04-30T05:37:32.910Z,12.80
2019-04-30T05:40:03.064Z,12.37
2019-04-30T05:42:32.834Z,12.77
2019-04-30T05:45:02.683Z,13.03
2019-04-30T05:47:32.515Z,11.30
2019-04-30T05:50:02.295Z,12.83
2019-04-30T05:52:32.047Z,12.10
2019-04-30T05:55:02.395Z,16.00
2019-04-30T05:57:32.874Z,14.17
2019-04-30T06:00:03.295Z,12.70
2019-04-30T06:02:33.977Z,11.83
2019-04-30T06:05:04.282Z,16.53
2019-04-30T06:07:34.146Z,13.23
2019-04-30T06:10:09.341Z,10.10
2019-04-30T06:12:59.467Z,13.77
2019-04-30T06:15:40.283Z,12.27
2019-04-30T06:18:13.753Z,13.83
2019-04-30T06:20:41.989Z,14.07
2019-04-30T06:23:11.822Z,13.20
2019-04-30T06:25:56.440Z,45.67
2019-04-30T06:28:14.414Z,15.67
2019-04-30T06:30:44.860Z,13.97
2019-04-30T06:33:15.982Z,11.27
2019-04-30T06:35:46.707Z,11.67
2019-04-30T06:38:18.386Z,12.90
2019-04-30T06:40:48.878Z,13.30
2019-04-30T06:43:21.811Z,12.17
2019-04-30T06:45:52.479Z,12.90
2019-04-30T06:48:23.206Z,12.27
2019-04-30T06:50:53.046Z,15.00
2019-04-30T06:53:23.771Z,15.30
2019-04-30T06:55:53.854Z,12.50
2019-04-30T06:58:24.219Z,13.70
2019-04-30T07:00:54.552Z,12.37
2019-04-30T07:03:24.383Z,15.33
2019-04-30T07:05:54.313Z,14.30
2019-04-30T07:08:51.982Z,15.47
2019-04-30T07:11:31.433Z,17.97
2019-04-30T07:14:01.543Z,15.23
2019-04-30T07:16:31.614Z,16.10
2019-04-30T07:19:02.286Z,15.03
2019-04-30T07:21:36.607Z,17.17
2019-04-30T07:24:03.920Z,16.47
2019-04-30T07:26:33.914Z,16.90
2019-04-30T07:29:03.740Z,18.90
2019-04-30T07:31:33.621Z,17.77
2019-04-30T07:34:03.555Z,18.40
2019-04-30T07:36:45.960Z,16.90
2019-04-30T07:39:06.447Z,16.00
2019-04-30T07:41:36.245Z,14.90
2019-04-30T07:44:06.093Z,16.37
2019-04-30T07:46:41.069Z,20.03
2019-04-30T07:49:09.903Z,15.67
2019-04-30T07:51:41.726Z,23.47
2019-04-30T07:54:10.444Z,21.23
2019-04-30T07:56:41.680Z,23.80
2019-04-30T07:59:11.798Z,20.70
2019-04-30T08:02:00.538Z,24.13
2019-04-30T08:04:30.797Z,19.80
2019-04-30T08:07:02.485Z,22.43
2019-04-30T08:09:39.121Z,18.73
2019-04-30T08:12:04.160Z,18.33
2019-04-30T08:14:33.914Z,20.90
2019-04-30T08:17:03.749Z,21.80
2019-04-30T08:19:33.973Z,18.90
2019-04-30T08:22:04.382Z,18.80
2019-04-30T08:24:34.677Z,28.27
2019-04-30T08:27:04.764Z,21.03
2019-04-30T08:29:34.587Z,44.60
2019-04-30T08:32:04.483Z,18.33
2019-04-30T08:34:34.517Z,26.50
2019-04-30T08:37:16.738Z,26.43
2019-04-30T08:39:36.923Z,22.03
2019-04-30T08:42:08.891Z,20.50
2019-04-30T08:44:39.688Z,22.83
2019-04-30T08:47:10.171Z,24.67
2019-04-30T08:49:41.802Z,24.17
2019-04-30T08:52:12.132Z,24.90
2019-04-30T08:54:42.507Z,21.57
2019-04-30T08:57:12.602Z,25.67
2019-04-30T08:59:42.898Z,19.90
2019-04-30T09:02:16.312Z,25.70
2019-04-30T09:04:45.355Z,29.63
2019-04-30T09:07:15.706Z,25.20
2019-04-30T09:09:45.673Z,21.93
2019-04-30T09:12:15.628Z,24.63
2019-04-30T09:14:45.711Z,25.60
2019-04-30T09:17:15.394Z,18.93
2019-04-30T09:19:45.169Z,24.13
2019-04-30T09:22:15.384Z,22.23
2019-04-30T09:24:45.110Z,29.23
2019-04-30T09:27:14.927Z,22.70
2019-04-30T09:29:44.713Z,26.90
2019-04-30T09:32:14.740Z,22.43
2019-04-30T09:34:44.757Z,23.77
2019-04-30T09:37:15.441Z,23.70
2019-04-30T09:39:46.074Z,22.60
2019-04-30T09:42:16.429Z,20.33
2019-04-30T09:44:49.054Z,18.13
2019-04-30T09:47:20.064Z,17.37
2019-04-30T09:49:50.322Z,16.80
2019-04-30T09:52:20.586Z,19.50
2019-04-30T09:54:51.052Z,18.20
2019-04-30T09:57:21.178Z,20.73
2019-04-30T09:59:50.951Z,16.47
2019-04-30T10:02:20.711Z,17.37
2019-04-30T10:04:51.035Z,20.43
2019-04-30T10:07:21.335Z,16.43
2019-04-30T10:09:51.168Z,23.07
2019-04-30T10:12:21.246Z,21.67
2019-04-30T10:14:51.202Z,19.60
2019-04-30T10:17:38.667Z,21.40
2019-04-30T10:20:10.609Z,19.57
2019-04-30T10:22:40.453Z,18.73
2019-04-30T10:25:10.394Z,19.83
2019-04-30T10:27:40.527Z,20.47
2019-04-30T10:30:11.102Z,20.00
2019-04-30T10:32:41.221Z,23.57
2019-04-30T10:35:11.443Z,21.23
2019-04-30T10:37:41.915Z,21.93
2019-04-30T10:40:12.226Z,18.63
2019-04-30T10:42:43.201Z,20.20
2019-04-30T10:45:14.352Z,20.07
2019-04-30T10:47:44.746Z,24.20
2019-04-30T10:50:15.474Z,23.50
2019-04-30T10:52:45.578Z,22.30
2019-04-30T10:55:15.522Z,22.17
2019-04-30T10:57:46.446Z,26.70
2019-04-30T11:00:18.591Z,23.20
2019-04-30T11:02:49.666Z,25.50
2019-04-30T11:05:21.149Z,24.20
2019-04-30T11:07:51.674Z,30.03
2019-04-30T11:10:21.541Z,23.53
2019-04-30T11:12:52.015Z,23.50
2019-04-30T11:15:22.448Z,24.30
2019-04-30T11:17:53.198Z,21.03
2019-04-30T11:20:23.284Z,24.87
2019-04-30T11:22:54.887Z,22.10
2019-04-30T11:25:26.035Z,27.40
2019-04-30T11:27:56.834Z,25.40
2019-04-30T11:30:29.446Z,23.27
2019-04-30T11:32:59.285Z,22.63
2019-04-30T11:35:29.766Z,23.20
2019-04-30T11:37:59.931Z,25.90
2019-04-30T11:40:37.198Z,27.60
2019-04-30T11:43:03.971Z,23.47
2019-04-30T11:46:18.597Z,23.90
2019-04-30T11:48:49.292Z,22.80
2019-04-30T11:51:20.007Z,23.27
2019-04-30T11:53:49.935Z,24.33
2019-04-30T11:56:20.139Z,24.67
2019-04-30T11:58:50.012Z,21.10
2019-04-30T12:01:22.180Z,27.20
2019-04-30T12:03:52.115Z,26.40
2019-04-30T12:06:22.077Z,25.83
2019-04-30T12:09:09.279Z,23.83
2019-04-30T12:11:39.156Z,23.00
2019-04-30T12:14:09.140Z,24.90
2019-04-30T12:16:39.550Z,21.73
2019-04-30T12:19:09.862Z,25.00
2019-04-30T12:21:39.823Z,24.53
2019-04-30T12:24:10.261Z,20.97
2019-04-30T12:26:40.679Z,29.80
2019-04-30T12:29:11.249Z,22.57
2019-04-30T12:31:41.531Z,31.50
2019-04-30T12:34:12.340Z,33.63
2019-04-30T12:36:42.493Z,19.57
2019-04-30T12:39:12.860Z,23.83
2019-04-30T12:41:43.190Z,24.43
2019-04-30T12:44:13.126Z,20.60
2019-04-30T12:46:43.271Z,26.53
2019-04-30T12:49:13.806Z,26.53
2019-04-30T12:51:51.399Z,23.47
2019-04-30T12:54:27.723Z,21.10
2019-04-30T12:57:31.863Z,21.60
2019-04-30T13:00:01.778Z,23.10
2019-04-30T13:02:31.959Z,23.40
2019-04-30T13:05:02.259Z,23.60
2019-04-30T13:07:32.901Z,23.23
2019-04-30T13:10:04.006Z,21.83
2019-04-30T13:12:35.533Z,19.50
2019-04-30T13:15:07.242Z,20.63
2019-04-30T13:17:37.810Z,21.57
2019-04-30T13:20:18.192Z,21.67
2019-04-30T13:22:40.514Z,21.63
2019-04-30T13:25:10.731Z,24.13
2019-04-30T13:27:44.202Z,22.27
2019-04-30T13:30:20.248Z,22.40
2019-04-30T13:33:03.102Z,23.07
2019-04-30T13:35:33.226Z,27.17
2019-04-30T13:38:12.375Z,26.13
2019-04-30T13:40:49.038Z,19.57
2019-04-30T13:43:21.026Z,20.73
2019-04-30T13:45:51.921Z,20.83
2019-04-30T13:48:22.322Z,23.87
2019-04-30T13:50:52.497Z,19.97
2019-04-30T13:53:23.195Z,19.57
2019-04-30T13:55:53.640Z,23.43
2019-04-30T13:58:23.770Z,25.13
2019-04-30T14:00:54.863Z,21.97
2019-04-30T14:03:36.242Z,22.13
2019-04-30T14:06:09.072Z,21.93
2019-04-30T14:08:44.019Z,21.77
2019-04-30T14:11:14.634Z,20.40
2019-04-30T14:13:44.894Z,20.80
2019-04-30T14:16:15.181Z,22.50
2019-04-30T14:18:45.499Z,20.83
2019-04-30T14:21:15.882Z,19.90
2019-04-30T14:23:46.328Z,20.17
2019-04-30T14:26:16.636Z,22.03
2019-04-30T14:28:48.892Z,25.80
2019-04-30T14:31:20.845Z,23.63
2019-04-30T14:33:50.904Z,20.93
2019-04-30T14:36:21.596Z,21.80
2019-04-30T14:38:51.456Z,24.10
2019-04-30T14:41:22.036Z,19.30
2019-04-30T14:44:01.171Z,21.43
2019-04-30T14:46:50.524Z,21.73
2019-04-30T14:49:37.693Z,21.70
2019-04-30T14:52:09.362Z,19.50
2019-04-30T14:54:50.516Z,16.67
2019-04-30T14:57:39.778Z,21.43
2019-04-30T15:00:35.905Z,18.90
2019-04-30T15:03:09.512Z,18.13
2019-04-30T15:05:48.513Z,20.10
2019-04-30T15:08:11.938Z,20.07
2019-04-30T15:10:44.114Z,18.37
2019-04-30T15:13:14.765Z,23.50
2019-04-30T15:15:44.925Z,18.70
2019-04-30T15:18:15.386Z,21.47
2019-04-30T15:20:45.502Z,20.77
2019-04-30T15:23:23.301Z,22.83
2019-04-30T15:25:54.448Z,23.80
2019-04-30T15:28:32.483Z,21.67
2019-04-30T15:30:58.670Z,25.33
2019-04-30T15:33:44.897Z,21.60
2019-04-30T15:36:14.752Z,19.40
2019-04-30T15:39:18.822Z,21.17
2019-04-30T15:41:49.215Z,20.50
2019-04-30T15:44:19.105Z,20.30
2019-04-30T15:46:49.279Z,18.80
2019-04-30T15:49:19.416Z,18.00
2019-04-30T15:51:49.558Z,19.70
2019-04-30T15:54:21.003Z,19.27
2019-04-30T15:56:51.635Z,19.00
2019-04-30T15:59:39.571Z,18.90
2019-04-30T16:02:21.311Z,17.40
2019-04-30T16:05:09.155Z,19.13
2019-04-30T16:07:45.159Z,19.10
2019-04-30T16:10:32.846Z,17.60
2019-04-30T16:13:09.725Z,22.70
2019-04-30T16:15:39.655Z,15.27
2019-04-30T16:18:09.803Z,19.23
2019-04-30T16:20:40.101Z,17.77
2019-04-30T16:23:10.075Z,16.53
2019-04-30T16:25:40.225Z,18.83
2019-04-30T16:28:10.199Z,16.67
2019-04-30T16:30:42.804Z,16.67
2019-04-30T16:33:12.323Z,21.20
2019-04-30T16:35:42.118Z,21.37
2019-04-30T16:38:12.257Z,16.67
2019-04-30T16:40:42.052Z,18.60
2019-04-30T16:43:11.987Z,16.47
2019-04-30T16:45:42.102Z,18.60
2019-04-30T16:48:12.367Z,15.83
2019-04-30T16:50:42.488Z,17.60
2019-04-30T16:53:12.530Z,16.33
2019-04-30T16:55:42.950Z,14.23
2019-04-30T16:58:13.043Z,15.03
2019-04-30T17:00:44.038Z,17.73
2019-04-30T17:03:21.268Z,17.23
2019-04-30T17:05:59.578Z,16.47
2019-04-30T17:08:39.096Z,15.83
2019-04-30T17:11:21.184Z,18.93
2019-04-30T17:13:57.838Z,14.40
2019-04-30T17:16:30.223Z,19.60
2019-04-30T17:19:00.023Z,16.97
2019-04-30T17:21:29.897Z,12.97
2019-04-30T17:24:00.687Z,13.90
2019-04-30T17:26:30.998Z,15.00
2019-04-30T17:29:01.300Z,13.20
2019-04-30T17:31:31.710Z,13.60
2019-04-30T17:34:01.679Z,14.40
2019-04-30T17:36:31.793Z,17.20
2019-04-30T17:39:02.173Z,16.80
2019-04-30T17:41:32.795Z,15.80
2019-04-30T17:44:03.015Z,12.13
2019-04-30T17:46:33.131Z,18.10
2019-04-30T17:49:03.324Z,15.30
2019-04-30T17:51:33.620Z,12.83
2019-04-30T17:54:16.202Z,15.03
2019-04-30T17:56:46.417Z,16.97
2019-04-30T17:59:16.538Z,13.83
2019-04-30T18:01:52.939Z,14.10
2019-04-30T18:04:23.587Z,15.90
2019-04-30T18:06:53.908Z,16.03
2019-04-30T18:09:24.090Z,16.30
2019-04-30T18:11:53.997Z,17.07
2019-04-30T18:14:23.748Z,15.03
2019-04-30T18:16:53.727Z,13.20
2019-04-30T18:19:30.030Z,14.33
2019-04-30T18:22:09.407Z,14.53
2019-04-30T18:25:05.847Z,14.67
2019-04-30T18:27:45.605Z,12.33
2019-04-30T18:30:15.328Z,13.97
2019-04-30T18:32:45.291Z,12.60
2019-04-30T18:35:15.118Z,12.80
2019-04-30T18:37:45.414Z,13.47
2019-04-30T18:40:15.610Z,13.53
2019-04-30T18:42:45.746Z,11.93
2019-04-30T18:45:16.002Z,13.30
2019-04-30T18:47:46.471Z,11.00
2019-04-30T18:50:17.899Z,16.07
2019-04-30T18:52:50.714Z,14.97
2019-04-30T18:55:21.322Z,12.33
2019-04-30T18:57:56.926Z,10.17
2019-04-30T19:00:30.326Z,13.33
2019-04-30T19:03:00.230Z,12.30
2019-04-30T19:05:31.167Z,12.20
2019-04-30T19:08:06.042Z,14.83
2019-04-30T19:10:56.150Z,12.23
2019-04-30T19:13:50.986Z,12.83
2019-04-30T19:16:42.155Z,10.63
2019-04-30T19:19:16.925Z,16.80
2019-04-30T19:21:48.637Z,15.70
2019-04-30T19:24:19.749Z,13.63
2019-04-30T19:26:50.479Z,15.97
2019-04-30T19:29:20.302Z,21.50
2019-04-30T19:31:50.299Z,16.67
2019-04-30T19:34:20.841Z,14.60
2019-04-30T19:36:50.582Z,18.00
2019-04-30T19:39:20.527Z,16.63
2019-04-30T19:41:50.265Z,13.37
2019-04-30T19:44:20.883Z,17.20
2019-04-30T19:46:50.850Z,17.43
2019-04-30T19:49:20.606Z,15.83
2019-04-30T19:51:53.145Z,20.10
2019-04-30T19:54:22.263Z,18.63
2019-04-30T19:56:52.955Z,15.00
2019-04-30T19:59:23.047Z,17.20
2019-04-30T20:01:53.662Z,15.63
2019-04-30T20:04:33.079Z,19.57
2019-04-30T20:06:55.797Z,17.60
2019-04-30T20:09:25.835Z,20.13
2019-04-30T20:11:56.953Z,18.90
2019-04-30T20:14:29.119Z,19.27
2019-04-30T20:17:01.111Z,20.17
2019-04-30T20:19:31.391Z,17.93
2019-04-30T20:22:01.585Z,17.97
2019-04-30T20:24:32.070Z,17.57
2019-04-30T20:27:06.913Z,17.90
2019-04-30T20:29:34.645Z,19.03
2019-04-30T20:32:05.062Z,21.33
2019-04-30T20:34:35.703Z,17.70
2019-04-30T20:37:06.319Z,19.57
2019-04-30T20:39:42.379Z,21.47
2019-04-30T20:42:12.742Z,18.37
2019-04-30T20:44:42.765Z,25.90
2019-04-30T20:47:12.792Z,18.87
2019-04-30T20:49:42.814Z,19.17
2019-04-30T20:52:13.451Z,21.60
2019-04-30T20:54:43.477Z,20.47
2019-04-30T20:57:13.262Z,16.80
2019-04-30T20:59:43.263Z,20.10
2019-04-30T21:02:13.384Z,20.40
2019-04-30T21:04:43.719Z,21.10
2019-04-30T21:07:14.318Z,23.50
2019-04-30T21:09:44.689Z,16.50
2019-04-30T21:12:14.427Z,16.77
2019-04-30T21:14:44.127Z,15.80
2019-04-30T21:17:13.782Z,20.57
2019-04-30T21:19:43.606Z,16.53
2019-04-30T21:22:13.439Z,19.40
2019-04-30T21:24:43.282Z,21.80
2019-04-30T21:27:12.942Z,20.60
2019-04-30T21:29:42.810Z,17.90
2019-04-30T21:32:18.995Z,20.73
2019-04-30T21:35:14.595Z,18.67
2019-04-30T21:37:45.170Z,18.60
2019-04-30T21:40:15.350Z,22.90
2019-04-30T21:42:45.334Z,21.43
2019-04-30T21:45:15.183Z,19.37
2019-04-30T21:47:55.765Z,20.00
2019-04-30T21:50:16.563Z,18.40
2019-04-30T21:52:46.930Z,22.00
2019-04-30T21:55:16.763Z,21.13
2019-04-30T21:57:46.583Z,18.80
2019-04-30T22:00:25.714Z,15.93
2019-04-30T22:02:55.563Z,19.30
2019-04-30T22:05:25.473Z,20.37
2019-04-30T22:07:55.347Z,17.40
2019-04-30T22:10:25.222Z,19.50
2019-04-30T22:12:55.043Z,21.83
2019-04-30T22:15:24.966Z,22.57
2019-04-30T22:17:54.650Z,21.80
2019-04-30T22:20:24.754Z,18.27
2019-04-30T22:22:54.559Z,19.87
2019-04-30T22:25:24.309Z,19.70
2019-04-30T22:27:54.080Z,19.07
2019-04-30T22:30:24.234Z,20.90
2019-04-30T22:32:53.954Z,19.10
2019-04-30T22:35:55.014Z,20.87
2019-04-30T22:38:29.124Z,20.20
2019-04-30T22:40:59.102Z,17.23
2019-04-30T22:43:29.363Z,17.97
2019-04-30T22:46:04.025Z,16.77
2019-04-30T22:48:34.272Z,20.50
2019-04-30T22:51:04.485Z,19.73
2019-04-30T22:53:34.925Z,17.37
2019-04-30T22:56:05.303Z,18.83
2019-04-30T22:58:35.901Z,18.13
2019-04-30T23:01:17.064Z,19.47
2019-04-30T23:03:47.186Z,22.20
2019-04-30T23:06:17.510Z,17.90
2019-04-30T23:08:48.116Z,24.30
2019-04-30T23:11:18.360Z,21.70
2019-04-30T23:13:48.194Z,18.73
2019-04-30T23:16:18.317Z,22.63
2019-04-30T23:18:48.119Z,27.20
2019-04-30T23:21:18.746Z,20.27
2019-04-30T23:23:49.361Z,21.80
2019-04-30T23:26:19.672Z,23.97
2019-04-30T23:28:49.482Z,23.23
2019-04-30T23:31:19.531Z,18.60
2019-04-30T23:33:50.038Z,18.17
2019-04-30T23:36:20.917Z,20.93
2019-04-30T23:38:50.645Z,19.90
2019-04-30T23:41:21.219Z,22.93
2019-04-30T23:43:51.760Z,18.07
2019-04-30T23:46:22.109Z,23.57
2019-04-30T23:48:52.123Z,21.63
2019-04-30T23:51:22.413Z,22.37
2019-04-30T23:53:52.880Z,20.43
2019-04-30T23:56:23.272Z,21.27
2019-04-30T23:58:53.283Z,23.27
